sensor_id;sensor_type;location;lat;lon;timestamp;pressure;altitude;pressure_sealevel;temperature;humidity
37792;BME280;29527;55.766;37.570;2023-08-01T00:00:00;99198.31;;;18.77;66.00
37792;BME280;29527;55.766;37.570;2023-08-01T00:02:26;99195.16;;;18.73;66.20
37792;BME280;29527;55.766;37.570;2023-08-01T00:04:51;99197.84;;;18.73;66.63
37792;BME280;29527;55.766;37.570;2023-08-01T00:07:17;99190.75;;;18.72;66.85
37792;BME280;29527;55.766;37.570;2023-08-01T00:09:42;99199.09;;;18.71;67.08
37792;BME280;29527;55.766;37.570;2023-08-01T00:12:08;99201.34;;;18.67;66.53
37792;BME280;29527;55.766;37.570;2023-08-01T00:14:35;99205.34;;;18.71;66.65
37792;BME280;29527;55.766;37.570;2023-08-01T00:17:00;99180.53;;;18.53;67.01
37792;BME280;29527;55.766;37.570;2023-08-01T00:19:26;99197.78;;;18.67;66.29
37792;BME280;29527;55.766;37.570;2023-08-01T00:21:51;99196.50;;;18.62;67.16
37792;BME280;29527;55.766;37.570;2023-08-01T00:24:17;99199.81;;;18.58;66.86
37792;BME280;29527;55.766;37.570;2023-08-01T00:26:42;99197.09;;;18.58;66.76
37792;BME280;29527;55.766;37.570;2023-08-01T00:29:08;99199.34;;;18.54;67.29
37792;BME280;29527;55.766;37.570;2023-08-01T00:31:33;99183.75;;;18.41;67.33
37792;BME280;29527;55.766;37.570;2023-08-01T00:33:59;99186.25;;;18.43;68.01
37792;BME280;29527;55.766;37.570;2023-08-01T00:36:24;99184.16;;;18.38;68.47
37792;BME280;29527;55.766;37.570;2023-08-01T00:38:50;99210.47;;;18.44;68.45
37792;BME280;29527;55.766;37.570;2023-08-01T00:41:15;99203.75;;;18.40;68.84
37792;BME280;29527;55.766;37.570;2023-08-01T00:43:41;99204.53;;;18.34;68.80
37792;BME280;29527;55.766;37.570;2023-08-01T00:46:09;99215.00;;;18.37;68.72
37792;BME280;29527;55.766;37.570;2023-08-01T00:48:35;99202.56;;;18.28;68.92
37792;BME280;29527;55.766;37.570;2023-08-01T00:51:04;99211.63;;;18.35;68.78
37792;BME280;29527;55.766;37.570;2023-08-01T00:53:30;99210.31;;;18.31;68.82
37792;BME280;29527;55.766;37.570;2023-08-01T00:55:57;99213.00;;;18.31;68.35
37792;BME280;29527;55.766;37.570;2023-08-01T00:58:23;99215.94;;;18.29;69.23
37792;BME280;29527;55.766;37.570;2023-08-01T01:00:49;99210.03;;;18.26;69.00
37792;BME280;29527;55.766;37.570;2023-08-01T01:03:15;99215.28;;;18.27;69.03
37792;BME280;29527;55.766;37.570;2023-08-01T01:05:46;99210.50;;;18.29;69.12
37792;BME280;29527;55.766;37.570;2023-08-01T01:08:13;99206.22;;;18.35;69.42
37792;BME280;29527;55.766;37.570;2023-08-01T01:10:39;99223.00;;;18.45;69.79
37792;BME280;29527;55.766;37.570;2023-08-01T01:13:04;99216.94;;;18.43;69.28
37792;BME280;29527;55.766;37.570;2023-08-01T01:15:30;99216.28;;;18.41;69.42
37792;BME280;29527;55.766;37.570;2023-08-01T01:17:55;99219.00;;;18.41;69.22
37792;BME280;29527;55.766;37.570;2023-08-01T01:20:23;99221.06;;;18.39;69.20
37792;BME280;29527;55.766;37.570;2023-08-01T01:22:54;99218.44;;;18.31;69.50
37792;BME280;29527;55.766;37.570;2023-08-01T01:25:20;99221.53;;;18.28;69.21
37792;BME280;29527;55.766;37.570;2023-08-01T01:27:51;99220.50;;;18.29;69.80
37792;BME280;29527;55.766;37.570;2023-08-01T01:30:18;99214.16;;;18.21;69.53
37792;BME280;29527;55.766;37.570;2023-08-01T01:32:44;99218.56;;;18.22;69.36
37792;BME280;29527;55.766;37.570;2023-08-01T01:35:10;99207.25;;;18.19;69.10
37792;BME280;29527;55.766;37.570;2023-08-01T01:37:35;99220.44;;;18.22;69.38
37792;BME280;29527;55.766;37.570;2023-08-01T01:40:01;99184.94;;;18.02;69.81
37792;BME280;29527;55.766;37.570;2023-08-01T01:42:26;99217.03;;;18.20;69.84
37792;BME280;29527;55.766;37.570;2023-08-01T01:44:52;99216.41;;;18.18;70.18
37792;BME280;29527;55.766;37.570;2023-08-01T01:47:17;99210.31;;;18.16;70.30
37792;BME280;29527;55.766;37.570;2023-08-01T01:49:43;99176.50;;;17.97;70.29
37792;BME280;29527;55.766;37.570;2023-08-01T01:52:08;99214.72;;;18.17;70.50
37792;BME280;29527;55.766;37.570;2023-08-01T01:54:34;99191.34;;;18.01;70.75
37792;BME280;29527;55.766;37.570;2023-08-01T01:56:59;99178.19;;;17.98;70.11
37792;BME280;29527;55.766;37.570;2023-08-01T01:59:25;99216.88;;;18.21;69.39
37792;BME280;29527;55.766;37.570;2023-08-01T02:01:50;99220.22;;;18.24;70.30
37792;BME280;29527;55.766;37.570;2023-08-01T02:04:16;99225.25;;;18.27;70.58
37792;BME280;29527;55.766;37.570;2023-08-01T02:06:41;99220.50;;;18.29;70.48
37792;BME280;29527;55.766;37.570;2023-08-01T02:09:07;99219.47;;;18.30;70.59
37792;BME280;29527;55.766;37.570;2023-08-01T02:11:33;99223.50;;;18.34;71.02
37792;BME280;29527;55.766;37.570;2023-08-01T02:13:58;99216.41;;;18.33;70.88
37792;BME280;29527;55.766;37.570;2023-08-01T02:16:24;99222.47;;;18.35;71.20
37792;BME280;29527;55.766;37.570;2023-08-01T02:18:50;99215.38;;;18.34;70.96
37792;BME280;29527;55.766;37.570;2023-08-01T02:21:15;99224.22;;;18.43;71.12
37792;BME280;29527;55.766;37.570;2023-08-01T02:23:41;99223.00;;;18.45;71.41
37792;BME280;29527;55.766;37.570;2023-08-01T02:26:06;99222.22;;;18.51;70.88
37792;BME280;29527;55.766;37.570;2023-08-01T02:28:33;99217.75;;;18.59;71.02
37792;BME280;29527;55.766;37.570;2023-08-01T02:30:59;99214.44;;;18.63;70.81
37792;BME280;29527;55.766;37.570;2023-08-01T02:33:24;99222.91;;;18.75;70.79
37792;BME280;29527;55.766;37.570;2023-08-01T02:35:50;99225.06;;;18.80;70.69
37792;BME280;29527;55.766;37.570;2023-08-01T02:38:15;99219.72;;;18.87;70.46
37792;BME280;29527;55.766;37.570;2023-08-01T02:40:41;99192.03;;;18.76;70.09
37792;BME280;29527;55.766;37.570;2023-08-01T02:43:06;99211.44;;;18.95;69.84
37792;BME280;29527;55.766;37.570;2023-08-01T02:45:32;99210.97;;;19.06;69.81
37792;BME280;29527;55.766;37.570;2023-08-01T02:47:57;99212.88;;;19.13;69.17
37792;BME280;29527;55.766;37.570;2023-08-01T02:50:23;99226.31;;;19.21;68.72
37792;BME280;29527;55.766;37.570;2023-08-01T02:52:48;99162.25;;;18.98;68.13
37792;BME280;29527;55.766;37.570;2023-08-01T02:55:13;99217.91;;;19.38;67.56
37792;BME280;29527;55.766;37.570;2023-08-01T02:57:39;99221.94;;;19.48;66.66
37792;BME280;29527;55.766;37.570;2023-08-01T03:00:05;99223.28;;;19.59;66.44
37792;BME280;29527;55.766;37.570;2023-08-01T03:02:32;99227.31;;;19.70;66.12
37792;BME280;29527;55.766;37.570;2023-08-01T03:04:57;99218.19;;;19.78;65.97
37792;BME280;29527;55.766;37.570;2023-08-01T03:07:23;99221.84;;;19.92;65.72
37792;BME280;29527;55.766;37.570;2023-08-01T03:09:48;99230.66;;;20.01;65.55
37792;BME280;29527;55.766;37.570;2023-08-01T03:12:14;99238.66;;;20.09;65.74
37792;BME280;29527;55.766;37.570;2023-08-01T03:14:40;99227.44;;;20.19;65.33
37792;BME280;29527;55.766;37.570;2023-08-01T03:17:08;99229.34;;;20.25;65.26
37792;BME280;29527;55.766;37.570;2023-08-01T03:19:34;99232.94;;;20.39;64.50
37792;BME280;29527;55.766;37.570;2023-08-01T03:22:00;99229.63;;;20.44;65.26
37792;BME280;29527;55.766;37.570;2023-08-01T03:24:25;99234.06;;;20.58;64.28
37792;BME280;29527;55.766;37.570;2023-08-01T03:26:51;99237.88;;;20.71;63.61
37792;BME280;29527;55.766;37.570;2023-08-01T03:29:16;99240.88;;;20.83;62.32
37792;BME280;29527;55.766;37.570;2023-08-01T03:31:42;99239.19;;;20.95;62.13
37792;BME280;29527;55.766;37.570;2023-08-01T03:34:08;99239.69;;;21.12;62.03
37792;BME280;29527;55.766;37.570;2023-08-01T03:36:34;99239.66;;;21.26;61.25
37792;BME280;29527;55.766;37.570;2023-08-01T03:39:00;99243.00;;;21.55;60.57
37792;BME280;29527;55.766;37.570;2023-08-01T03:41:25;99239.84;;;22.12;59.32
37792;BME280;29527;55.766;37.570;2023-08-01T03:43:51;99238.84;;;22.97;56.68
37792;BME280;29527;55.766;37.570;2023-08-01T03:46:16;99244.09;;;24.00;53.55
37792;BME280;29527;55.766;37.570;2023-08-01T03:48:42;99248.47;;;25.06;52.52
37792;BME280;29527;55.766;37.570;2023-08-01T03:51:08;99215.84;;;25.83;49.45
37792;BME280;29527;55.766;37.570;2023-08-01T03:53:34;99226.38;;;26.68;47.13
37792;BME280;29527;55.766;37.570;2023-08-01T03:55:59;99247.78;;;27.58;44.22
37792;BME280;29527;55.766;37.570;2023-08-01T03:58:25;99255.50;;;28.35;42.46
37792;BME280;29527;55.766;37.570;2023-08-01T04:00:50;99259.28;;;29.01;40.33
37792;BME280;29527;55.766;37.570;2023-08-01T04:03:16;99251.56;;;29.58;38.74
37792;BME280;29527;55.766;37.570;2023-08-01T04:05:41;99243.19;;;30.33;38.57
37792;BME280;29527;55.766;37.570;2023-08-01T04:08:07;99249.81;;;31.17;35.18
37792;BME280;29527;55.766;37.570;2023-08-01T04:10:33;99258.09;;;32.00;34.42
37792;BME280;29527;55.766;37.570;2023-08-01T04:12:58;99251.69;;;32.81;33.18
37792;BME280;29527;55.766;37.570;2023-08-01T04:15:24;99260.75;;;33.36;31.34
37792;BME280;29527;55.766;37.570;2023-08-01T04:17:49;99257.16;;;34.00;30.35
37792;BME280;29527;55.766;37.570;2023-08-01T04:20:15;99267.25;;;34.64;28.95
37792;BME280;29527;55.766;37.570;2023-08-01T04:22:40;99265.06;;;35.38;27.94
37792;BME280;29527;55.766;37.570;2023-08-01T04:25:06;99273.72;;;36.02;26.79
37792;BME280;29527;55.766;37.570;2023-08-01T04:27:34;99265.03;;;36.74;25.49
37792;BME280;29527;55.766;37.570;2023-08-01T04:30:00;99260.03;;;37.44;23.96
37792;BME280;29527;55.766;37.570;2023-08-01T04:32:29;99265.13;;;38.28;22.88
37792;BME280;29527;55.766;37.570;2023-08-01T04:34:54;99262.28;;;38.77;22.37
37792;BME280;29527;55.766;37.570;2023-08-01T04:37:20;99262.16;;;39.27;22.04
37792;BME280;29527;55.766;37.570;2023-08-01T04:39:47;99258.97;;;39.72;21.57
37792;BME280;29527;55.766;37.570;2023-08-01T04:42:13;99258.34;;;40.05;20.96
37792;BME280;29527;55.766;37.570;2023-08-01T04:44:38;99258.75;;;40.25;20.57
37792;BME280;29527;55.766;37.570;2023-08-01T04:47:04;99264.53;;;40.59;20.24
37792;BME280;29527;55.766;37.570;2023-08-01T04:49:30;99260.41;;;41.08;19.35
37792;BME280;29527;55.766;37.570;2023-08-01T04:51:55;99262.22;;;41.58;18.34
37792;BME280;29527;55.766;37.570;2023-08-01T04:54:21;99264.78;;;41.85;18.11
37792;BME280;29527;55.766;37.570;2023-08-01T04:56:47;99260.00;;;42.10;17.98
37792;BME280;29527;55.766;37.570;2023-08-01T04:59:12;99262.84;;;42.48;18.00
37792;BME280;29527;55.766;37.570;2023-08-01T05:01:38;99266.75;;;42.96;17.24
37792;BME280;29527;55.766;37.570;2023-08-01T05:04:03;99262.41;;;43.56;17.06
37792;BME280;29527;55.766;37.570;2023-08-01T05:06:29;99261.81;;;44.11;16.43
37792;BME280;29527;55.766;37.570;2023-08-01T05:08:54;99260.06;;;44.54;15.48
37792;BME280;29527;55.766;37.570;2023-08-01T05:11:20;99262.00;;;44.90;14.87
37792;BME280;29527;55.766;37.570;2023-08-01T05:13:46;99261.38;;;45.16;14.73
37792;BME280;29527;55.766;37.570;2023-08-01T05:16:11;99269.22;;;45.66;14.09
37792;BME280;29527;55.766;37.570;2023-08-01T05:18:37;99264.19;;;46.02;13.72
37792;BME280;29527;55.766;37.570;2023-08-01T05:21:02;99268.13;;;46.48;13.60
37792;BME280;29527;55.766;37.570;2023-08-01T05:23:28;99264.06;;;47.03;12.65
37792;BME280;29527;55.766;37.570;2023-08-01T05:25:53;99262.16;;;47.48;12.08
37792;BME280;29527;55.766;37.570;2023-08-01T05:28:19;99257.47;;;47.63;12.56
37792;BME280;29527;55.766;37.570;2023-08-01T05:30:45;99276.34;;;47.48;12.31
37792;BME280;29527;55.766;37.570;2023-08-01T05:33:10;99274.28;;;47.45;12.37
37792;BME280;29527;55.766;37.570;2023-08-01T05:35:36;99274.81;;;47.99;11.75
37792;BME280;29527;55.766;37.570;2023-08-01T05:38:01;99272.84;;;48.56;11.40
37792;BME280;29527;55.766;37.570;2023-08-01T05:40:27;99253.38;;;48.58;11.11
37792;BME280;29527;55.766;37.570;2023-08-01T05:42:53;99267.88;;;48.42;10.97
37792;BME280;29527;55.766;37.570;2023-08-01T05:45:18;99274.34;;;48.39;11.12
37792;BME280;29527;55.766;37.570;2023-08-01T05:47:44;99272.59;;;48.83;11.22
37792;BME280;29527;55.766;37.570;2023-08-01T05:50:09;99265.88;;;49.20;10.54
37792;BME280;29527;55.766;37.570;2023-08-01T05:52:35;99267.50;;;49.28;10.33
37792;BME280;29527;55.766;37.570;2023-08-01T05:55:01;99258.16;;;49.32;10.51
37792;BME280;29527;55.766;37.570;2023-08-01T05:57:26;99269.63;;;50.01;9.88
37792;BME280;29527;55.766;37.570;2023-08-01T05:59:52;99253.72;;;50.58;9.47
37792;BME280;29527;55.766;37.570;2023-08-01T06:02:18;99273.13;;;51.03;9.29
37792;BME280;29527;55.766;37.570;2023-08-01T06:04:44;99273.34;;;51.37;9.20
37792;BME280;29527;55.766;37.570;2023-08-01T06:07:09;99278.47;;;51.61;8.60
37792;BME280;29527;55.766;37.570;2023-08-01T06:09:35;99264.59;;;51.74;8.86
37792;BME280;29527;55.766;37.570;2023-08-01T06:12:00;99284.34;;;51.99;8.57
37792;BME280;29527;55.766;37.570;2023-08-01T06:14:26;99282.84;;;52.29;8.38
37792;BME280;29527;55.766;37.570;2023-08-01T06:16:51;99286.38;;;51.99;8.64
37792;BME280;29527;55.766;37.570;2023-08-01T06:19:17;99280.25;;;52.04;8.69
37792;BME280;29527;55.766;37.570;2023-08-01T06:21:42;99280.69;;;51.95;8.46
37792;BME280;29527;55.766;37.570;2023-08-01T06:24:08;99282.00;;;52.36;8.11
37792;BME280;29527;55.766;37.570;2023-08-01T06:26:34;99278.09;;;52.92;7.96
37792;BME280;29527;55.766;37.570;2023-08-01T06:29:00;99284.09;;;53.32;7.81
37792;BME280;29527;55.766;37.570;2023-08-01T06:31:25;99274.53;;;53.46;7.83
37792;BME280;29527;55.766;37.570;2023-08-01T06:33:51;99280.41;;;53.63;7.21
37792;BME280;29527;55.766;37.570;2023-08-01T06:36:16;99278.66;;;53.14;7.58
37792;BME280;29527;55.766;37.570;2023-08-01T06:38:43;99278.69;;;51.32;8.46
37792;BME280;29527;55.766;37.570;2023-08-01T06:41:08;99270.91;;;52.00;8.51
37792;BME280;29527;55.766;37.570;2023-08-01T06:43:34;99274.69;;;53.01;7.84
37792;BME280;29527;55.766;37.570;2023-08-01T06:46:02;99262.78;;;53.64;7.29
37792;BME280;29527;55.766;37.570;2023-08-01T06:48:28;99278.91;;;52.92;7.83
37792;BME280;29527;55.766;37.570;2023-08-01T06:50:54;99257.06;;;50.09;9.12
37792;BME280;29527;55.766;37.570;2023-08-01T06:53:19;99274.44;;;48.01;11.02
37792;BME280;29527;55.766;37.570;2023-08-01T06:55:46;99261.72;;;48.99;10.36
37792;BME280;29527;55.766;37.570;2023-08-01T06:58:12;99263.06;;;50.73;9.37
37792;BME280;29527;55.766;37.570;2023-08-01T07:00:37;99267.50;;;49.36;10.12
37792;BME280;29527;55.766;37.570;2023-08-01T07:03:02;99266.63;;;46.81;11.58
37792;BME280;29527;55.766;37.570;2023-08-01T07:05:28;99260.47;;;47.40;11.15
37792;BME280;29527;55.766;37.570;2023-08-01T07:07:54;99263.47;;;49.48;9.84
37792;BME280;29527;55.766;37.570;2023-08-01T07:10:20;99265.34;;;51.78;8.58
37792;BME280;29527;55.766;37.570;2023-08-01T07:12:45;99260.66;;;53.72;7.41
37792;BME280;29527;55.766;37.570;2023-08-01T07:15:11;99265.38;;;54.74;6.98
37792;BME280;29527;55.766;37.570;2023-08-01T07:17:37;99260.63;;;55.41;6.33
37792;BME280;29527;55.766;37.570;2023-08-01T07:20:03;99268.69;;;56.59;5.43
37792;BME280;29527;55.766;37.570;2023-08-01T07:22:29;99267.56;;;57.12;5.24
37792;BME280;29527;55.766;37.570;2023-08-01T07:24:54;99262.06;;;57.17;5.02
37792;BME280;29527;55.766;37.570;2023-08-01T07:27:21;99283.34;;;57.33;4.75
37792;BME280;29527;55.766;37.570;2023-08-01T07:29:47;99272.91;;;57.65;4.97
37792;BME280;29527;55.766;37.570;2023-08-01T07:32:12;99292.09;;;57.94;5.06
37792;BME280;29527;55.766;37.570;2023-08-01T07:34:38;99283.25;;;58.11;5.34
37792;BME280;29527;55.766;37.570;2023-08-01T07:37:03;99270.59;;;58.21;5.04
37792;BME280;29527;55.766;37.570;2023-08-01T07:39:29;99270.47;;;58.47;4.96
37792;BME280;29527;55.766;37.570;2023-08-01T07:41:55;99274.53;;;58.81;4.52
37792;BME280;29527;55.766;37.570;2023-08-01T07:44:21;99270.19;;;58.99;4.86
37792;BME280;29527;55.766;37.570;2023-08-01T07:46:47;99255.56;;;58.93;4.39
37792;BME280;29527;55.766;37.570;2023-08-01T07:49:12;99276.44;;;58.97;4.67
37792;BME280;29527;55.766;37.570;2023-08-01T07:51:38;99279.50;;;59.35;4.24
37792;BME280;29527;55.766;37.570;2023-08-01T07:54:03;99277.47;;;59.44;4.47
37792;BME280;29527;55.766;37.570;2023-08-01T07:56:29;99270.00;;;58.71;4.22
37792;BME280;29527;55.766;37.570;2023-08-01T07:58:54;99272.44;;;58.15;4.41
37792;BME280;29527;55.766;37.570;2023-08-01T08:01:20;99266.06;;;57.07;5.44
37792;BME280;29527;55.766;37.570;2023-08-01T08:03:45;99263.19;;;56.64;5.20
37792;BME280;29527;55.766;37.570;2023-08-01T08:06:11;99254.81;;;55.61;6.00
37792;BME280;29527;55.766;37.570;2023-08-01T08:08:36;99262.28;;;55.22;6.13
37792;BME280;29527;55.766;37.570;2023-08-01T08:11:02;99253.66;;;54.21;6.90
37792;BME280;29527;55.766;37.570;2023-08-01T08:13:28;99247.19;;;50.68;9.08
37792;BME280;29527;55.766;37.570;2023-08-01T08:15:57;99263.47;;;47.20;10.88
37792;BME280;29527;55.766;37.570;2023-08-01T08:18:23;99247.06;;;43.85;13.43
37792;BME280;29527;55.766;37.570;2023-08-01T08:20:50;99253.44;;;41.47;15.61
37792;BME280;29527;55.766;37.570;2023-08-01T08:23:16;99240.88;;;40.90;16.33
37792;BME280;29527;55.766;37.570;2023-08-01T08:25:42;99241.94;;;40.25;16.72
37792;BME280;29527;55.766;37.570;2023-08-01T08:28:11;99249.81;;;39.01;18.22
37792;BME280;29527;55.766;37.570;2023-08-01T08:30:37;99234.56;;;37.60;19.56
37792;BME280;29527;55.766;37.570;2023-08-01T08:33:03;99253.91;;;36.46;20.63
37792;BME280;29527;55.766;37.570;2023-08-01T08:35:35;99237.75;;;35.59;21.68
37792;BME280;29527;55.766;37.570;2023-08-01T08:38:02;99262.38;;;34.94;22.78
37792;BME280;29527;55.766;37.570;2023-08-01T08:40:28;99249.69;;;33.96;23.46
37792;BME280;29527;55.766;37.570;2023-08-01T08:42:54;99223.31;;;32.99;25.17
37792;BME280;29527;55.766;37.570;2023-08-01T08:45:20;99240.22;;;32.47;25.83
37792;BME280;29527;55.766;37.570;2023-08-01T08:47:53;99242.25;;;32.21;26.68
37792;BME280;29527;55.766;37.570;2023-08-01T08:50:20;99242.31;;;31.69;27.33
37792;BME280;29527;55.766;37.570;2023-08-01T08:52:46;99255.38;;;31.38;27.98
37792;BME280;29527;55.766;37.570;2023-08-01T08:55:12;99262.50;;;31.18;28.04
37792;BME280;29527;55.766;37.570;2023-08-01T08:57:38;99251.72;;;31.06;28.02
37792;BME280;29527;55.766;37.570;2023-08-01T09:00:05;99244.25;;;31.01;28.07
37792;BME280;29527;55.766;37.570;2023-08-01T09:02:33;99244.78;;;30.98;28.39
37792;BME280;29527;55.766;37.570;2023-08-01T09:04:59;99216.84;;;30.79;28.50
37792;BME280;29527;55.766;37.570;2023-08-01T09:07:27;99249.81;;;31.12;27.92
37792;BME280;29527;55.766;37.570;2023-08-01T09:09:54;99250.06;;;31.10;27.80
37792;BME280;29527;55.766;37.570;2023-08-01T09:12:21;99217.72;;;30.95;28.12
37792;BME280;29527;55.766;37.570;2023-08-01T09:14:50;99243.75;;;31.30;27.84
37792;BME280;29527;55.766;37.570;2023-08-01T09:17:16;99254.53;;;31.42;28.21
37792;BME280;29527;55.766;37.570;2023-08-01T09:19:44;99240.97;;;31.61;27.56
37792;BME280;29527;55.766;37.570;2023-08-01T09:22:11;99238.75;;;31.84;27.31
37792;BME280;29527;55.766;37.570;2023-08-01T09:24:37;99199.13;;;31.94;27.35
37792;BME280;29527;55.766;37.570;2023-08-01T09:27:03;99187.75;;;32.01;27.15
37792;BME280;29527;55.766;37.570;2023-08-01T09:29:34;99231.34;;;32.56;26.37
37792;BME280;29527;55.766;37.570;2023-08-01T09:31:59;99237.31;;;32.73;26.49
37792;BME280;29527;55.766;37.570;2023-08-01T09:34:26;99208.84;;;32.57;26.30
37792;BME280;29527;55.766;37.570;2023-08-01T09:36:58;99229.03;;;32.68;25.78
37792;BME280;29527;55.766;37.570;2023-08-01T09:39:24;99217.59;;;32.19;27.13
37792;BME280;29527;55.766;37.570;2023-08-01T09:41:59;99224.84;;;32.10;27.26
37792;BME280;29527;55.766;37.570;2023-08-01T09:44:27;99232.59;;;32.03;26.76
37792;BME280;29527;55.766;37.570;2023-08-01T09:47:00;99246.44;;;32.08;26.79
37792;BME280;29527;55.766;37.570;2023-08-01T09:49:28;99236.81;;;31.79;26.98
37792;BME280;29527;55.766;37.570;2023-08-01T09:51:54;99227.69;;;31.63;27.48
37792;BME280;29527;55.766;37.570;2023-08-01T09:54:20;99221.31;;;31.63;27.73
37792;BME280;29527;55.766;37.570;2023-08-01T09:56:48;99225.47;;;31.55;27.83
37792;BME280;29527;55.766;37.570;2023-08-01T09:59:19;99221.59;;;31.51;27.39
37792;BME280;29527;55.766;37.570;2023-08-01T10:01:47;99219.97;;;31.29;28.07
37792;BME280;29527;55.766;37.570;2023-08-01T10:04:13;99221.03;;;31.18;27.87
37792;BME280;29527;55.766;37.570;2023-08-01T10:06:43;99220.22;;;31.43;28.33
37792;BME280;29527;55.766;37.570;2023-08-01T10:09:10;99219.09;;;31.60;27.89
37792;BME280;29527;55.766;37.570;2023-08-01T10:11:38;99209.97;;;31.70;27.44
37792;BME280;29527;55.766;37.570;2023-08-01T10:14:04;99200.00;;;31.74;27.94
37792;BME280;29527;55.766;37.570;2023-08-01T10:16:31;99211.34;;;31.67;27.99
37792;BME280;29527;55.766;37.570;2023-08-01T10:18:57;99206.41;;;31.43;28.12
37792;BME280;29527;55.766;37.570;2023-08-01T10:21:25;99216.34;;;31.03;28.48
37792;BME280;29527;55.766;37.570;2023-08-01T10:23:53;99214.09;;;30.79;28.49
37792;BME280;29527;55.766;37.570;2023-08-01T10:26:20;99215.72;;;30.70;28.79
37792;BME280;29527;55.766;37.570;2023-08-01T10:28:52;99205.78;;;30.74;28.45
37792;BME280;29527;55.766;37.570;2023-08-01T10:31:19;99213.78;;;30.70;28.46
37792;BME280;29527;55.766;37.570;2023-08-01T10:33:49;99206.91;;;30.83;28.28
37792;BME280;29527;55.766;37.570;2023-08-01T10:36:20;99200.53;;;30.72;28.25
37792;BME280;29527;55.766;37.570;2023-08-01T10:38:53;99203.19;;;30.41;29.45
37792;BME280;29527;55.766;37.570;2023-08-01T10:44:13;99213.56;;;30.13;29.20
37792;BME280;29527;55.766;37.570;2023-08-01T10:49:18;99180.44;;;29.65;30.52
37792;BME280;29527;55.766;37.570;2023-08-01T10:51:45;99209.47;;;29.73;30.53
37792;BME280;29527;55.766;37.570;2023-08-01T10:54:24;99206.50;;;29.85;30.42
37792;BME280;29527;55.766;37.570;2023-08-01T10:56:56;99199.56;;;29.77;30.76
37792;BME280;29527;55.766;37.570;2023-08-01T10:59:23;99191.84;;;29.84;31.42
37792;BME280;29527;55.766;37.570;2023-08-01T11:01:52;99202.41;;;29.92;31.14
37792;BME280;29527;55.766;37.570;2023-08-01T11:04:20;99195.09;;;30.19;30.67
37792;BME280;29527;55.766;37.570;2023-08-01T11:06:53;99192.16;;;30.46;30.04
37792;BME280;29527;55.766;37.570;2023-08-01T11:09:26;99188.03;;;30.54;29.17
37792;BME280;29527;55.766;37.570;2023-08-01T11:11:57;99200.19;;;30.53;29.29
37792;BME280;29527;55.766;37.570;2023-08-01T11:14:26;99188.78;;;30.29;30.03
37792;BME280;29527;55.766;37.570;2023-08-01T11:16:55;99209.53;;;30.36;29.95
37792;BME280;29527;55.766;37.570;2023-08-01T11:19:26;99196.53;;;30.37;29.82
37792;BME280;29527;55.766;37.570;2023-08-01T11:21:53;99199.28;;;30.27;29.70
37792;BME280;29527;55.766;37.570;2023-08-01T11:24:21;99187.09;;;30.17;29.83
37792;BME280;29527;55.766;37.570;2023-08-01T11:26:48;99201.13;;;30.11;29.46
37792;BME280;29527;55.766;37.570;2023-08-01T11:29:15;99205.53;;;30.06;29.64
37792;BME280;29527;55.766;37.570;2023-08-01T11:31:52;99198.13;;;30.17;29.48
37792;BME280;29527;55.766;37.570;2023-08-01T11:34:18;99192.53;;;30.02;29.77
37792;BME280;29527;55.766;37.570;2023-08-01T11:36:43;99188.88;;;29.91;30.41
37792;BME280;29527;55.766;37.570;2023-08-01T11:39:11;99203.97;;;29.78;30.68
37792;BME280;29527;55.766;37.570;2023-08-01T11:41:38;99188.81;;;29.81;30.00
37792;BME280;29527;55.766;37.570;2023-08-01T11:44:04;99183.03;;;29.82;30.00
37792;BME280;29527;55.766;37.570;2023-08-01T11:46:31;99180.84;;;29.89;30.09
37792;BME280;29527;55.766;37.570;2023-08-01T11:48:58;99177.53;;;29.87;29.79
37792;BME280;29527;55.766;37.570;2023-08-01T11:51:24;99187.44;;;29.83;29.93
37792;BME280;29527;55.766;37.570;2023-08-01T11:54:02;99174.75;;;29.87;30.29
37792;BME280;29527;55.766;37.570;2023-08-01T11:56:29;99174.69;;;29.72;30.70
37792;BME280;29527;55.766;37.570;2023-08-01T11:58:55;99172.41;;;29.58;31.80
37792;BME280;29527;55.766;37.570;2023-08-01T12:01:21;99168.50;;;29.49;31.77
37792;BME280;29527;55.766;37.570;2023-08-01T12:03:48;99178.91;;;29.42;31.68
37792;BME280;29527;55.766;37.570;2023-08-01T12:06:15;99178.91;;;29.42;31.47
37792;BME280;29527;55.766;37.570;2023-08-01T12:08:42;99174.53;;;29.46;31.83
37792;BME280;29527;55.766;37.570;2023-08-01T12:11:22;99172.97;;;29.60;31.52
37792;BME280;29527;55.766;37.570;2023-08-01T12:13:59;99169.63;;;29.53;31.65
37792;BME280;29527;55.766;37.570;2023-08-01T12:16:25;99161.09;;;29.55;31.22
37792;BME280;29527;55.766;37.570;2023-08-01T12:18:50;99146.28;;;29.71;31.24
37792;BME280;29527;55.766;37.570;2023-08-01T12:21:16;99137.53;;;29.90;30.84
37792;BME280;29527;55.766;37.570;2023-08-01T12:23:41;99150.88;;;30.03;30.43
37792;BME280;29527;55.766;37.570;2023-08-01T12:26:07;99138.47;;;30.11;30.63
37792;BME280;29527;55.766;37.570;2023-08-01T12:28:34;99113.56;;;30.01;30.23
37792;BME280;29527;55.766;37.570;2023-08-01T12:31:00;99150.09;;;30.18;30.76
37792;BME280;29527;55.766;37.570;2023-08-01T12:33:25;99145.41;;;30.19;30.89
37792;BME280;29527;55.766;37.570;2023-08-01T12:35:51;99155.06;;;30.16;30.86
37792;BME280;29527;55.766;37.570;2023-08-01T12:38:16;99163.84;;;30.03;30.76
37792;BME280;29527;55.766;37.570;2023-08-01T12:40:42;99153.50;;;29.83;31.23
37792;BME280;29527;55.766;37.570;2023-08-01T12:43:07;99153.41;;;29.62;31.53
37792;BME280;29527;55.766;37.570;2023-08-01T12:45:33;99147.53;;;29.48;31.53
37792;BME280;29527;55.766;37.570;2023-08-01T12:47:58;99147.03;;;29.23;32.28
37792;BME280;29527;55.766;37.570;2023-08-01T12:50:24;99160.44;;;29.10;32.60
37792;BME280;29527;55.766;37.570;2023-08-01T12:52:49;99155.38;;;28.96;33.17